Terminal Aerodrome Forecast
Issued by NWS Sterling, VA

Current Version | Previous Version | Graphics & Text | Print | Product List | Glossary On
Versions: 1 2 3 4 5 6 7 8 9 10 11 12 13 14 15 16 17
465
FTUS41 KLWX 230540
TAFMRB
TAF
KMRB 230540Z 2306/2406 33004KT 5SM BR BKN040 OVC060
     FM230900 32004KT 3SM BR BKN025 BKN060
     FM231300 35004KT 5SM BR BKN015 BKN100
     FM231500 35005KT P6SM BKN050 BKN120
     FM231800 36006KT P6SM -SHRA BKN050
     FM240000 31004KT P6SM SCT090 BKN150=

USA.gov is the U.S. government's official web portal to all federal, state and local government web resources and services.